Spring Lake Heights, New Jersey
Current Conditions -  °F | °C
As of 3:55 PM on Tuesday 21 Oct 2014 (Local Time) from KBLM Reporting Station
Overcast Overcast  
Wind Chill: 61°   Ceiling: 6000
Heat Index: 61°   Visibility: 9mi
Dew Point: 54°   Wind: 6mph
Humidity: 77%   Direction: 70°ENE
Pressure: 29.82"   Gusts: NA
Location:  40.1528°N, 74.0364°W
Report Text: KBLM 211955Z AUTO 07005KT 9SM FEW027 BKN060 OVC085 16/12 A2982 RMK AO1 LTG DSNT E P0001
Loading
Personal Weather Stations






























Interactive Weather Map New forecast layout! Learn more

10-Day Weather Forecast

Advertisements
Track Severe Weather on mobile